Time;durP1;ratioP1;P1;durP2;ratioP2;P2;SDS_P1;SDS_P2;PMS_P1;PMS_P2;Temp;Humidity;BMP_temperature;BMP_pressure;BME280_temperature;BME280_humidity;BME280_pressure;Samples;Min_cycle;Max_cycle;Signal;HPM_P1;HPM_P2
2020/12/15 00:01:59;;;;;;;18.75;12.68;;;;;;;9.19;92.19;100538.09;5090482;28;20047;-46
2020/12/15 00:04:26;;;;;;;20.45;13.38;;;;;;;9.19;92.46;100524.97;5090984;28;20548;-49
2020/12/15 00:06:54;;;;;;;21.88;14.50;;;;;;;9.20;92.58;100531.38;5091183;28;20089;-48
2020/12/15 00:09:21;;;;;;;19.35;13.57;;;;;;;9.22;92.61;100524.38;5090204;28;20059;-50
2020/12/15 00:11:49;;;;;;;20.60;12.82;;;;;;;9.24;92.39;100524.09;5091577;28;20044;-46
2020/12/15 00:14:15;;;;;;;18.30;12.48;;;;;;;9.25;92.66;100523.78;5090485;28;20433;-46
2020/12/15 00:16:42;;;;;;;14.57;11.25;;;;;;;9.27;92.41;100523.50;5091078;28;20368;-45
2020/12/15 00:19:11;;;;;;;17.98;13.35;;;;;;;9.27;92.54;100529.88;5090935;28;20048;-49
2020/12/15 00:21:41;;;;;;;17.50;13.30;;;;;;;9.29;92.49;100533.22;5090952;28;20107;-46
2020/12/15 00:24:08;;;;;;;18.05;13.48;;;;;;;9.28;92.53;100533.50;5090271;28;20051;-45
2020/12/15 00:26:35;;;;;;;20.25;13.82;;;;;;;9.31;92.61;100522.59;5090737;28;20062;-49
2020/12/15 00:29:02;;;;;;;16.25;12.05;;;;;;;9.33;92.68;100531.50;5090543;28;20054;-45
2020/12/15 00:31:34;;;;;;;15.20;12.13;;;;;;;9.37;92.62;100526.16;5090223;28;20040;-46
2020/12/15 00:34:02;;;;;;;20.60;13.88;;;;;;;9.36;92.77;100523.66;5090789;28;20146;-45
2020/12/15 00:36:28;;;;;;;21.48;15.20;;;;;;;9.38;93.05;100525.03;5091079;28;20538;-44
2020/12/15 00:38:55;;;;;;;22.75;16.17;;;;;;;9.43;92.84;100532.47;5089765;28;20040;-47
2020/12/15 00:41:23;;;;;;;19.52;14.82;;;;;;;9.44;92.90;100539.69;5090518;28;20087;-46
2020/12/15 00:43:49;;;;;;;21.00;14.35;;;;;;;9.45;92.93;100538.56;5090469;28;20048;-45
2020/12/15 00:46:18;;;;;;;16.02;12.23;;;;;;;9.47;92.74;100547.44;5100290;28;20044;-47
2020/12/15 00:48:47;;;;;;;17.17;13.70;;;;;;;9.49;92.69;100545.19;5110820;28;20031;-49
2020/12/15 00:51:15;;;;;;;21.05;15.35;;;;;;;9.48;92.65;100533.22;5090469;28;20054;-45
2020/12/15 00:53:43;;;;;;;21.08;15.27;;;;;;;9.50;92.63;100519.84;5090670;28;20052;-49
2020/12/15 00:56:10;;;;;;;21.05;16.50;;;;;;;9.50;92.67;100522.63;5110840;28;20066;-43
2020/12/15 00:58:37;;;;;;;20.30;15.52;;;;;;;9.51;92.71;100524.28;5109400;28;20047;-47
2020/12/15 01:01:05;;;;;;;20.35;15.13;;;;;;;9.54;92.77;100514.50;5091652;28;20048;-47
2020/12/15 01:03:34;;;;;;;20.95;15.55;;;;;;;9.56;92.68;100520.59;5112596;28;20447;-48
2020/12/15 01:06:00;;;;;;;17.60;14.82;;;;;;;9.56;92.65;100517.81;5095226;28;20214;-48
2020/12/15 01:08:30;;;;;;;22.65;15.10;;;;;;;9.57;92.59;100520.28;5113541;28;20051;-47
2020/12/15 01:11:10;;;;;;;22.30;15.63;;;;;;;9.57;92.55;100528.66;5095603;28;20048;-48
2020/12/15 01:13:38;;;;;;;20.27;15.57;;;;;;;9.57;92.77;100530.59;5112883;28;20498;-46
2020/12/15 01:16:07;;;;;;;20.67;15.82;;;;;;;9.58;92.70;100521.97;5097020;28;20075;-46
2020/12/15 01:18:35;;;;;;;21.20;16.38;;;;;;;9.59;92.64;100520.78;5092902;28;20048;-47
2020/12/15 01:21:05;;;;;;;21.65;16.95;;;;;;;9.60;92.78;100521.63;5092146;28;20059;-46
2020/12/15 01:23:32;;;;;;;19.80;15.68;;;;;;;9.62;92.62;100516.59;5092959;28;20071;-48
2020/12/15 01:26:03;;;;;;;21.90;17.38;;;;;;;9.62;92.50;100503.47;5092530;28;20137;-48
2020/12/15 01:28:33;;;;;;;22.30;17.42;;;;;;;9.63;92.37;100515.47;5092090;28;20052;-45
2020/12/15 01:31:02;;;;;;;22.95;17.20;;;;;;;9.63;92.75;100515.47;5092510;28;20046;-46
2020/12/15 01:33:29;;;;;;;23.40;17.63;;;;;;;9.65;92.50;100513.19;5107705;28;20094;-47
2020/12/15 01:36:27;;;;;;;24.83;18.83;;;;;;;9.63;92.52;100512.66;5113651;28;20058;-46
2020/12/15 01:38:58;;;;;;;23.67;19.17;;;;;;;9.64;92.82;100505.97;5096054;28;20082;-45
2020/12/15 01:41:36;;;;;;;23.45;18.42;;;;;;;9.62;92.74;100502.66;5105858;28;20054;-44
2020/12/15 01:44:05;;;;;;;19.70;16.67;;;;;;;9.65;92.48;100502.06;5096504;28;20052;-45
2020/12/15 01:46:39;;;;;;;23.27;17.98;;;;;;;9.65;92.51;100502.88;5093938;28;20044;-47
2020/12/15 01:49:08;;;;;;;18.40;16.20;;;;;;;9.67;92.38;100505.38;5091994;28;20248;-46
2020/12/15 01:51:45;;;;;;;21.90;16.88;;;;;;;9.65;92.56;100496.47;5092066;28;20040;-45
2020/12/15 01:54:13;;;;;;;21.83;17.65;;;;;;;9.65;92.54;100504.84;5091997;28;20512;-49
2020/12/15 01:56:46;;;;;;;19.80;16.92;;;;;;;9.65;92.44;100491.75;5091982;28;20040;-47
2020/12/15 01:59:19;;;;;;;20.50;17.20;;;;;;;9.64;92.48;100489.25;5092395;28;20048;-50
2020/12/15 02:01:50;;;;;;;22.58;16.77;;;;;;;9.64;92.44;100490.09;5094646;28;20048;-50
2020/12/15 02:04:29;;;;;;;20.95;16.75;;;;;;;9.65;92.45;100488.13;5098267;28;20097;-46
2020/12/15 02:07:04;;;;;;;22.83;17.88;;;;;;;9.65;92.36;100490.91;5091981;28;20105;-47
2020/12/15 02:09:33;;;;;;;23.08;16.70;;;;;;;9.65;92.42;100502.06;5091306;28;20052;-48
2020/12/15 02:12:13;;;;;;;19.27;16.45;;;;;;;9.62;92.36;100497.09;5102383;28;20040;-46
2020/12/15 02:14:43;;;;;;;18.30;16.10;;;;;;;9.63;92.49;100495.94;5113016;28;20062;-48
2020/12/15 02:17:14;;;;;;;23.10;17.77;;;;;;;9.61;92.25;100481.50;5108427;28;20054;-45
2020/12/15 02:20:11;;;;;;;21.60;16.42;;;;;;;9.57;92.48;100483.25;5107237;28;20128;-50
2020/12/15 02:23:03;;;;;;;23.83;16.73;;;;;;;9.54;92.38;100493.03;5098204;28;20514;-49
2020/12/15 02:25:34;;;;;;;21.08;16.13;;;;;;;9.52;92.23;100495.28;5091594;28;20056;-46
2020/12/15 02:28:01;;;;;;;20.52;16.35;;;;;;;9.51;92.40;100499.22;5091252;28;20457;-49
2020/12/15 02:30:29;;;;;;;19.67;15.30;;;;;;;9.49;92.46;100503.41;5091068;28;20435;-47
2020/12/15 02:33:00;;;;;;;21.55;15.05;;;;;;;9.49;92.26;100511.78;5091456;28;20450;-46
2020/12/15 02:35:32;;;;;;;19.42;15.15;;;;;;;9.45;92.26;100522.69;5091246;28;20070;-47
2020/12/15 02:37:58;;;;;;;19.85;15.63;;;;;;;9.45;92.47;100522.69;5100352;28;20418;-52
2020/12/15 02:40:29;;;;;;;18.42;15.18;;;;;;;9.45;92.54;100521.84;5099657;28;20046;-49
2020/12/15 02:43:09;;;;;;;18.52;15.02;;;;;;;9.42;92.47;100525.22;5101049;28;20079;-48
2020/12/15 02:45:36;;;;;;;21.38;16.42;;;;;;;9.40;92.61;100530.28;5099210;28;20040;-50
2020/12/15 02:48:07;;;;;;;22.55;17.00;;;;;;;9.40;92.52;100531.09;5091925;28;20130;-48
2020/12/15 02:50:36;;;;;;;21.95;17.00;;;;;;;9.41;92.67;100537.50;5100712;28;20078;-51
2020/12/15 02:53:17;;;;;;;21.58;15.80;;;;;;;9.39;92.59;100534.22;5091718;28;20044;-49
2020/12/15 02:55:46;;;;;;;18.13;15.05;;;;;;;9.41;92.50;100534.72;5101216;28;20048;-49
2020/12/15 02:58:20;;;;;;;18.75;15.45;;;;;;;9.40;92.54;100538.63;5090637;28;20050;-49
2020/12/15 03:00:51;;;;;;;20.08;16.23;;;;;;;9.41;92.56;100554.22;5090938;28;20047;-47
2020/12/15 03:03:21;;;;;;;19.15;15.45;;;;;;;9.41;92.69;100552.25;5093268;28;20044;-49
2020/12/15 03:05:59;;;;;;;19.85;16.48;;;;;;;9.40;92.67;100555.34;5112293;28;20050;-52
2020/12/15 03:08:27;;;;;;;20.08;16.02;;;;;;;9.39;92.55;100550.91;5110202;28;20039;-50
2020/12/15 03:10:56;;;;;;;19.45;15.90;;;;;;;9.38;92.60;100554.81;5092419;28;20044;-48
2020/12/15 03:13:23;;;;;;;18.40;14.50;;;;;;;9.37;92.56;100555.97;5091903;28;20422;-50
2020/12/15 03:15:50;;;;;;;20.67;16.77;;;;;;;9.36;92.48;100555.13;5094417;28;20581;-46
2020/12/15 03:18:22;;;;;;;20.60;16.02;;;;;;;9.32;92.57;100554.88;5091138;28;20047;-45
2020/12/15 03:20:52;;;;;;;19.30;15.35;;;;;;;9.31;92.73;100558.81;5091193;28;20036;-47
2020/12/15 03:23:23;;;;;;;17.80;15.15;;;;;;;9.33;92.67;100564.06;5090791;28;20054;-47
2020/12/15 03:25:53;;;;;;;18.98;14.40;;;;;;;9.33;92.58;100553.75;5091036;28;20106;-46
2020/12/15 03:28:22;;;;;;;20.45;15.35;;;;;;;9.35;92.69;100561.00;5090766;28;20062;-48
2020/12/15 03:30:52;;;;;;;22.42;17.50;;;;;;;9.38;92.71;100563.19;5089906;28;20106;-49
2020/12/15 03:33:20;;;;;;;16.80;14.00;;;;;;;9.39;92.60;100562.88;5090038;28;20040;-46
2020/12/15 03:35:48;;;;;;;17.58;14.27;;;;;;;9.40;92.62;100566.47;5089712;28;20122;-46
2020/12/15 03:38:20;;;;;;;19.63;15.52;;;;;;;9.39;92.74;100574.03;5090412;28;20494;-49
2020/12/15 03:40:51;;;;;;;20.23;15.47;;;;;;;9.41;92.80;100573.69;5089598;28;20380;-48
2020/12/15 03:43:40;;;;;;;17.67;15.00;;;;;;;9.40;92.86;100574.81;5090287;28;20044;-47
2020/12/15 03:46:35;;;;;;;20.40;15.52;;;;;;;9.40;92.91;100572.03;5081330;28;20063;-48
2020/12/15 03:49:06;;;;;;;17.70;15.00;;;;;;;9.42;92.96;100565.03;5089944;28;20048;-49
2020/12/15 03:51:37;;;;;;;18.63;14.95;;;;;;;9.44;92.87;100573.94;5089624;28;20047;-48
2020/12/15 03:54:30;;;;;;;;;;;;;;;9.40;93.00;100572.03;5088767;28;20517;-49
2020/12/15 03:57:17;;;;;;;21.08;15.95;;;;;;;9.41;93.06;100570.91;5080403;28;19924;-47
2020/12/15 04:00:11;;;;;;;20.30;15.65;;;;;;;9.43;93.07;100572.28;5088708;28;20113;-49
2020/12/15 04:02:38;;;;;;;22.90;16.77;;;;;;;9.46;93.07;100568.06;5091167;28;20066;-47
2020/12/15 04:05:17;;;;;;;21.33;16.70;;;;;;;9.47;92.89;100567.78;5090247;28;20055;-47
2020/12/15 04:07:45;;;;;;;21.88;16.85;;;;;;;9.50;92.75;100567.19;5090826;28;20044;-45
2020/12/15 04:10:12;;;;;;;20.92;16.70;;;;;;;9.49;92.89;100573.88;5089638;28;20491;-49
2020/12/15 04:12:49;;;;;;;23.67;17.50;;;;;;;9.51;92.69;100573.56;5090765;28;20453;-47
2020/12/15 04:15:17;;;;;;;19.33;16.35;;;;;;;9.52;92.76;100576.06;5091139;28;20134;-47
2020/12/15 04:17:44;;;;;;;19.70;15.27;;;;;;;9.52;92.84;100575.25;5090302;28;20089;-48
2020/12/15 04:20:12;;;;;;;22.92;16.50;;;;;;;9.52;92.81;100572.44;5090434;28;20138;-49
2020/12/15 04:22:40;;;;;;;27.15;15.80;;;;;;;9.52;92.78;100581.63;5089463;28;20055;-48
2020/12/15 04:25:08;;;;;;;21.80;16.65;;;;;;;9.54;92.81;100582.19;5090622;28;20051;-48
2020/12/15 04:27:41;;;;;;;23.38;17.70;;;;;;;9.55;92.77;100577.44;5093363;28;20052;-46
2020/12/15 04:30:07;;;;;;;20.42;16.85;;;;;;;9.56;92.86;100584.66;5109780;28;20043;-48
2020/12/15 04:32:35;;;;;;;20.20;16.10;;;;;;;9.56;92.79;100574.34;5111113;28;20051;-47
2020/12/15 04:35:11;;;;;;;24.85;18.23;;;;;;;9.55;92.90;100574.66;5090626;28;20052;-45
2020/12/15 04:37:40;;;;;;;24.60;17.15;;;;;;;9.57;92.89;100580.75;5089531;28;20079;-46
2020/12/15 04:40:10;;;;;;;22.58;16.95;;;;;;;9.55;92.93;100581.03;5090390;28;20105;-48
2020/12/15 04:42:42;;;;;;;24.77;16.33;;;;;;;9.55;92.96;100583.84;5090159;28;20059;-51
2020/12/15 04:45:09;;;;;;;22.10;15.73;;;;;;;9.59;93.06;100592.44;5090262;28;20059;-48
2020/12/15 04:47:49;;;;;;;21.35;15.88;;;;;;;9.60;92.93;100585.69;5098200;28;20040;-47
2020/12/15 04:50:25;;;;;;;25.60;16.75;;;;;;;9.63;93.21;100591.50;5108625;28;20085;-48
2020/12/15 04:53:06;;;;;;;19.73;14.57;;;;;;;9.68;93.14;100591.44;5097368;28;20067;-46
2020/12/15 04:55:54;;;;;;;23.25;15.27;;;;;;;9.72;93.15;100590.84;5111291;28;20051;-49
2020/12/15 04:58:24;;;;;;;28.58;15.25;;;;;;;9.76;93.08;100595.53;5094975;28;20138;-47
2020/12/15 05:00:54;;;;;;;24.90;15.73;;;;;;;9.81;92.90;100592.63;5090106;28;20044;-49
2020/12/15 05:03:36;;;;;;;20.15;15.00;;;;;;;9.84;92.84;100588.44;5089892;28;20113;-45
2020/12/15 05:06:06;;;;;;;25.13;16.75;;;;;;;9.87;92.42;100585.88;5089489;28;20052;-48
2020/12/15 05:08:37;;;;;;;21.20;13.93;;;;;;;9.89;92.56;100585.56;5089996;28;20055;-47
2020/12/15 05:11:09;;;;;;;20.88;14.38;;;;;;;9.90;92.44;100590.84;5089963;28;20574;-47
2020/12/15 05:13:55;;;;;;;22.77;15.25;;;;;;;9.89;92.63;100605.91;5089795;28;20040;-48
2020/12/15 05:16:22;;;;;;;22.98;15.43;;;;;;;9.88;92.58;100614.56;5090003;28;20153;-47
2020/12/15 05:19:04;;;;;;;23.90;15.45;;;;;;;9.86;92.62;100606.50;5089253;28;20142;-48
2020/12/15 05:21:39;;;;;;;24.17;15.13;;;;;;;9.85;92.67;100607.63;5090056;28;20040;-47
2020/12/15 05:24:10;;;;;;;23.42;15.77;;;;;;;9.84;92.81;100611.56;5089512;28;20044;-48
2020/12/15 05:26:46;;;;;;;25.23;15.75;;;;;;;9.81;92.90;100612.16;5089178;28;20052;-47
2020/12/15 05:29:17;;;;;;;26.60;14.98;;;;;;;9.80;92.87;100612.44;5089641;28;20052;-47
2020/12/15 05:32:19;;;;;;;27.42;15.60;;;;;;;9.75;93.01;100607.81;5103802;28;20039;-46
2020/12/15 05:35:08;;;;;;;30.70;16.85;;;;;;;9.70;92.91;100613.44;5092397;28;20055;-49
2020/12/15 05:38:10;;;;;;;27.75;16.45;;;;;;;9.61;93.19;100604.91;5068210;28;20546;-48
2020/12/15 05:41:00;;;;;;;25.92;15.70;;;;;;;9.56;93.14;100606.94;5108410;28;20131;-49
2020/12/15 05:43:57;;;;;;;26.65;16.23;;;;;;;9.50;93.01;100600.59;5110322;28;20090;-49
2020/12/15 05:46:28;;;;;;;25.80;14.23;;;;;;;9.50;93.49;100597.00;5110008;28;20096;-49
2020/12/15 05:49:03;;;;;;;25.83;16.27;;;;;;;9.47;93.50;100600.38;5108117;28;20048;-51
2020/12/15 05:51:38;;;;;;;27.70;15.32;;;;;;;9.46;93.75;100593.13;5104358;28;20055;-49
2020/12/15 05:54:07;;;;;;;24.88;14.98;;;;;;;9.46;93.93;100599.53;5113992;28;20044;-49
2020/12/15 05:56:36;;;;;;;24.10;14.85;;;;;;;9.47;94.01;100594.78;5115004;28;20130;-48
2020/12/15 05:59:14;;;;;;;24.85;14.55;;;;;;;9.48;94.09;100580.56;5114589;28;20044;-48
2020/12/15 06:01:40;;;;;;;29.73;16.45;;;;;;;9.46;94.30;100582.81;5114088;28;20491;-50
2020/12/15 06:04:08;;;;;;;28.75;15.77;;;;;;;9.47;94.26;100584.47;5113796;28;20055;-51
2020/12/15 06:06:38;;;;;;;22.38;14.02;;;;;;;9.48;94.19;100588.09;5114178;28;20066;-49
2020/12/15 06:09:08;;;;;;;24.17;15.65;;;;;;;9.45;94.34;100591.47;5113687;28;20406;-49
2020/12/15 06:11:38;;;;;;;25.92;15.27;;;;;;;9.46;94.29;100596.75;5113519;28;20062;-50
2020/12/15 06:14:05;;;;;;;24.42;15.63;;;;;;;9.46;94.14;100599.53;5114623;28;20146;-52
2020/12/15 06:16:32;;;;;;;28.25;16.58;;;;;;;9.47;94.32;100606.75;5113149;28;20053;-53
2020/12/15 06:19:00;;;;;;;27.17;15.85;;;;;;;9.48;94.32;100610.38;5114388;28;20410;-52
2020/12/15 06:21:28;;;;;;;26.17;15.65;;;;;;;9.47;94.38;100609.56;5113554;28;20543;-49
2020/12/15 06:24:04;;;;;;;28.17;16.63;;;;;;;9.47;94.55;100617.06;5113991;28;20051;-53
2020/12/15 06:26:32;;;;;;;28.95;17.20;;;;;;;9.47;94.52;100622.66;5113507;28;20555;-50
2020/12/15 06:29:01;;;;;;;30.23;16.17;;;;;;;9.48;94.39;100627.09;5113710;28;20058;-47
2020/12/15 06:31:29;;;;;;;25.83;15.63;;;;;;;9.47;94.39;100623.47;5110689;28;20082;-49
2020/12/15 06:33:57;;;;;;;27.05;15.65;;;;;;;9.49;94.26;100642.69;5113568;28;20069;-46
2020/12/15 06:36:29;;;;;;;26.00;15.13;;;;;;;9.45;94.04;100627.69;5112822;28;20032;-54
2020/12/15 06:38:56;;;;;;;29.02;15.73;;;;;;;9.42;94.31;100628.28;5113730;28;20047;-54
2020/12/15 06:41:24;;;;;;;28.92;16.25;;;;;;;9.40;94.23;100636.09;5113233;28;20225;-56
2020/12/15 06:44:08;;;;;;;22.38;13.73;;;;;;;9.37;94.24;100633.94;5113157;28;20494;-55
2020/12/15 06:46:35;;;;;;;25.10;15.05;;;;;;;9.35;94.28;100638.97;5101788;28;20072;-53
2020/12/15 06:49:09;;;;;;;26.13;14.85;;;;;;;9.33;94.28;100634.50;5093336;28;20040;-50
2020/12/15 06:51:37;;;;;;;27.42;15.27;;;;;;;9.32;94.38;100629.25;5092648;28;20086;-55
2020/12/15 06:54:05;;;;;;;31.83;16.52;;;;;;;9.30;94.27;100640.66;5093199;28;20063;-53
2020/12/15 06:56:37;;;;;;;33.30;17.38;;;;;;;9.29;94.28;100641.78;5098804;28;20089;-49
2020/12/15 06:59:06;;;;;;;27.48;14.57;;;;;;;9.25;94.37;100651.84;5112667;28;20502;-48
2020/12/15 07:01:33;;;;;;;30.05;14.15;;;;;;;9.24;94.29;100652.97;5111944;28;20061;-49
2020/12/15 07:04:02;;;;;;;30.50;15.25;;;;;;;9.21;94.51;100656.34;5112852;28;20075;-48
2020/12/15 07:06:28;;;;;;;26.60;14.00;;;;;;;9.22;94.48;100658.00;5108638;28;20139;-49
2020/12/15 07:09:08;;;;;;;25.40;13.70;;;;;;;9.22;94.40;100660.78;5092840;28;20430;-48
2020/12/15 07:11:36;;;;;;;27.00;12.85;;;;;;;9.21;94.50;100667.50;5092333;28;20043;-47
2020/12/15 07:14:05;;;;;;;31.25;15.02;;;;;;;9.21;94.49;100669.44;5092684;28;20083;-48
2020/12/15 07:16:32;;;;;;;28.38;13.50;;;;;;;9.23;94.42;100670.81;5092357;28;20052;-49
2020/12/15 07:19:00;;;;;;;34.03;15.63;;;;;;;9.21;94.49;100673.06;5091958;28;20135;-48
2020/12/15 07:21:31;;;;;;;29.05;14.90;;;;;;;9.21;94.63;100683.38;5092908;28;20044;-48
2020/12/15 07:24:00;;;;;;;38.10;16.25;;;;;;;9.22;94.62;100682.25;5111980;28;20456;-48
2020/12/15 07:26:27;;;;;;;28.35;14.52;;;;;;;9.21;94.70;100681.41;5112655;28;20056;-50
2020/12/15 07:28:55;;;;;;;23.00;13.60;;;;;;;9.22;94.58;100683.06;5112485;28;20421;-52
2020/12/15 07:31:26;;;;;;;27.08;13.98;;;;;;;9.25;94.61;100681.66;5112617;28;20180;-52
2020/12/15 07:34:05;;;;;;;25.98;13.23;;;;;;;9.24;94.62;100674.44;5111392;28;20044;-51
2020/12/15 07:36:36;;;;;;;31.83;15.02;;;;;;;9.22;94.69;100688.63;5113022;28;20124;-50
2020/12/15 07:39:05;;;;;;;33.25;15.18;;;;;;;9.21;94.76;100692.53;5111666;28;20058;-48
2020/12/15 07:41:37;;;;;;;25.52;13.13;;;;;;;9.23;94.67;100692.25;5112681;28;20131;-48
2020/12/15 07:44:14;;;;;;;29.85;14.43;;;;;;;9.22;94.72;100690.59;5112139;28;20044;-47
2020/12/15 07:46:45;;;;;;;28.30;14.25;;;;;;;9.22;94.56;100708.13;5111462;28;20051;-48
2020/12/15 07:49:11;;;;;;;27.58;12.82;;;;;;;9.21;94.65;100714.00;5112028;28;20139;-51
2020/12/15 07:51:39;;;;;;;32.35;14.30;;;;;;;9.21;94.83;100714.81;5112355;28;20047;-47
2020/12/15 07:54:06;;;;;;;31.98;14.48;;;;;;;9.21;94.72;100714.00;5111385;28;20054;-47
2020/12/15 07:56:33;;;;;;;34.15;15.75;;;;;;;9.19;94.69;100705.94;5112368;28;20075;-51
2020/12/15 07:59:00;;;;;;;32.35;15.30;;;;;;;9.19;94.75;100710.69;5111706;28;20039;-47
2020/12/15 08:01:29;;;;;;;27.63;13.30;;;;;;;9.20;94.73;100717.91;5111845;28;20387;-45
2020/12/15 08:04:06;;;;;;;38.17;17.88;;;;;;;9.19;94.74;100728.19;5111688;28;20512;-47
2020/12/15 08:06:37;;;;;;;31.88;14.43;;;;;;;9.20;94.86;100727.06;5112435;28;20134;-47
2020/12/15 08:09:04;;;;;;;31.52;16.90;;;;;;;9.21;94.88;100742.66;5111187;28;20394;-48
2020/12/15 08:11:31;;;;;;;33.50;15.45;;;;;;;9.23;94.75;100747.94;5111839;28;20136;-46
2020/12/15 08:14:01;;;;;;;28.88;15.05;;;;;;;9.23;94.73;100751.56;5111378;28;20048;-49
2020/12/15 08:16:28;;;;;;;30.15;14.35;;;;;;;9.25;94.83;100746.53;5111522;28;20079;-46
2020/12/15 08:19:01;;;;;;;32.17;15.25;;;;;;;9.26;94.75;100739.84;5111817;28;20141;-48
2020/12/15 08:21:40;;;;;;;28.50;14.05;;;;;;;9.27;94.75;100735.94;5100073;28;20044;-46
2020/12/15 08:24:09;;;;;;;30.77;14.50;;;;;;;9.25;94.66;100740.97;5111604;28;20067;-47
2020/12/15 08:26:37;;;;;;;26.73;14.15;;;;;;;9.27;94.60;100746.22;5111975;28;20451;-46
2020/12/15 08:29:07;;;;;;;28.85;15.23;;;;;;;9.27;94.73;100735.94;5111132;28;20146;-46
2020/12/15 08:31:36;;;;;;;31.40;16.00;;;;;;;9.27;94.68;100735.09;5111402;28;20044;-46
2020/12/15 08:34:10;;;;;;;31.13;14.25;;;;;;;9.28;94.66;100751.50;5111343;28;20490;-49
2020/12/15 08:36:42;;;;;;;29.23;14.75;;;;;;;9.28;94.72;100754.28;5108089;28;20042;-47
2020/12/15 08:39:11;;;;;;;26.53;13.70;;;;;;;9.28;94.66;100753.47;5111867;28;20119;-49
2020/12/15 08:41:46;;;;;;;30.42;15.43;;;;;;;9.29;94.71;100747.59;5111534;28;20090;-47
2020/12/15 08:44:13;;;;;;;31.27;15.52;;;;;;;9.31;94.85;100758.44;5111020;28;20494;-46
2020/12/15 08:46:40;;;;;;;30.83;14.70;;;;;;;9.32;94.69;100768.47;5111031;28;20044;-48
2020/12/15 08:49:11;;;;;;;33.22;14.23;;;;;;;9.31;94.87;100784.34;5112185;28;20119;-48
2020/12/15 08:51:40;;;;;;;27.52;13.85;;;;;;;9.32;94.69;100777.66;5110438;28;20222;-48
2020/12/15 08:54:07;;;;;;;33.22;15.07;;;;;;;9.35;94.58;100780.97;5111877;28;20087;-48
2020/12/15 08:56:35;;;;;;;29.42;14.65;;;;;;;9.33;94.74;100782.09;5110422;28;20388;-49
2020/12/15 08:59:12;;;;;;;25.85;13.07;;;;;;;9.36;94.72;100788.22;5111562;28;20058;-48
2020/12/15 09:01:40;;;;;;;22.85;12.30;;;;;;;9.35;94.71;100792.13;5110791;28;20508;-47
2020/12/15 09:04:08;;;;;;;24.48;12.45;;;;;;;9.38;94.62;100797.09;5111232;28;20048;-48
2020/12/15 09:06:36;;;;;;;27.80;12.25;;;;;;;9.40;94.81;100803.19;5111035;28;20074;-49
2020/12/15 09:09:06;;;;;;;21.08;11.80;;;;;;;9.41;94.62;100805.69;5111458;28;20448;-49
2020/12/15 09:11:33;;;;;;;25.77;12.85;;;;;;;9.44;94.78;100799.53;5110188;28;20053;-46
2020/12/15 09:14:02;;;;;;;25.90;12.82;;;;;;;9.48;94.69;100797.81;5111370;28;20143;-48
2020/12/15 09:16:32;;;;;;;30.98;13.63;;;;;;;9.51;94.70;100816.75;5110829;28;20048;-49
2020/12/15 09:19:11;;;;;;;25.55;12.38;;;;;;;9.53;94.67;100816.44;5111107;28;20054;-50
2020/12/15 09:21:40;;;;;;;22.45;11.98;;;;;;;9.53;94.54;100822.84;5110985;28;20039;-46
2020/12/15 09:24:08;;;;;;;30.02;13.48;;;;;;;9.53;94.50;100825.63;5111593;28;20051;-49
2020/12/15 09:26:36;;;;;;;20.58;12.18;;;;;;;9.54;94.50;100816.16;5114205;28;20151;-47
2020/12/15 09:29:07;;;;;;;23.75;12.45;;;;;;;9.54;94.37;100818.13;5115253;28;20058;-46
2020/12/15 09:31:34;;;;;;;21.90;12.15;;;;;;;9.54;94.56;100821.72;5113791;28;20047;-47
2020/12/15 09:34:01;;;;;;;22.42;12.65;;;;;;;9.57;94.46;100828.69;5115168;28;20414;-47
2020/12/15 09:36:29;;;;;;;22.90;12.73;;;;;;;9.60;94.49;100822.50;5114595;28;20135;-49
2020/12/15 09:38:56;;;;;;;27.60;13.98;;;;;;;9.62;94.53;100825.81;5114200;28;20047;-47
2020/12/15 09:41:23;;;;;;;27.75;14.35;;;;;;;9.65;94.43;100833.59;5114721;28;20070;-47
2020/12/15 09:43:50;;;;;;;33.95;14.43;;;;;;;9.67;94.35;100836.91;5114602;28;20123;-47
2020/12/15 09:46:17;;;;;;;21.92;13.43;;;;;;;9.68;94.42;100842.19;5114075;28;20570;-46
2020/12/15 09:48:44;;;;;;;25.13;14.43;;;;;;;9.69;94.42;100837.47;5114685;28;20130;-48
2020/12/15 09:51:11;;;;;;;29.35;13.07;;;;;;;9.69;94.29;100848.59;5114723;28;20056;-50
2020/12/15 09:53:39;;;;;;;24.58;12.88;;;;;;;9.71;94.29;100839.94;5113761;28;20139;-48
2020/12/15 09:56:05;;;;;;;21.80;14.27;;;;;;;9.70;94.25;100839.13;5114898;28;20126;-46
2020/12/15 09:58:45;;;;;;;21.77;12.43;;;;;;;9.71;94.45;100840.78;5114129;28;20040;-47
2020/12/15 10:01:19;;;;;;;22.05;12.35;;;;;;;9.73;94.38;100846.91;5113926;28;20125;-46
2020/12/15 10:03:46;;;;;;;24.60;13.75;;;;;;;9.74;94.36;100840.19;5113938;28;20047;-48
2020/12/15 10:06:13;;;;;;;22.23;12.35;;;;;;;9.78;94.23;100837.66;5114616;28;20047;-45
2020/12/15 10:08:42;;;;;;;23.15;13.13;;;;;;;9.79;94.28;100842.91;5113317;28;20085;-45
2020/12/15 10:11:13;;;;;;;24.23;13.68;;;;;;;9.83;94.40;100848.72;5114307;28;20143;-46
2020/12/15 10:13:39;;;;;;;24.45;12.98;;;;;;;9.90;94.38;100854.81;5113915;28;20125;-48
2020/12/15 10:16:07;;;;;;;20.60;12.23;;;;;;;9.95;94.29;100841.66;5113506;28;20070;-46
2020/12/15 10:18:35;;;;;;;24.42;13.27;;;;;;;9.99;94.20;100853.84;5113432;28;20391;-50
2020/12/15 10:21:01;;;;;;;20.33;12.48;;;;;;;10.05;94.09;100851.84;5113776;28;20142;-49
2020/12/15 10:23:29;;;;;;;21.92;12.85;;;;;;;10.11;94.10;100849.84;5106511;28;20460;-48
2020/12/15 10:25:57;;;;;;;21.88;12.88;;;;;;;10.21;94.27;100844.16;5113900;28;20548;-46
2020/12/15 10:28:24;;;;;;;18.63;12.40;;;;;;;10.39;94.37;100837.00;5113238;28;20043;-47
2020/12/15 10:30:51;;;;;;;23.00;12.65;;;;;;;10.59;94.32;100834.72;5113525;28;20053;-46
2020/12/15 10:33:17;;;;;;;24.58;12.60;;;;;;;10.79;93.86;100836.41;5113610;28;20050;-48
2020/12/15 10:36:00;;;;;;;21.48;11.50;;;;;;;10.80;92.89;100851.19;5112871;28;20532;-49
2020/12/15 10:38:27;;;;;;;22.00;11.32;;;;;;;10.76;92.64;100850.16;5113364;28;20126;-45
2020/12/15 10:40:53;;;;;;;24.33;11.50;;;;;;;10.67;92.38;100853.59;5113806;28;20108;-50
2020/12/15 10:43:21;;;;;;;17.63;8.60;;;;;;;10.60;92.53;100869.88;5112697;28;20452;-48
2020/12/15 10:45:48;;;;;;;15.82;9.35;;;;;;;10.56;92.61;100868.00;5113036;28;20582;-48
2020/12/15 10:48:14;;;;;;;13.13;8.43;;;;;;;10.48;92.58;100868.66;5113819;28;20143;-47
2020/12/15 10:50:41;;;;;;;14.80;8.07;;;;;;;10.43;92.72;100869.53;5092489;28;20048;-47
2020/12/15 10:53:10;;;;;;;13.48;8.05;;;;;;;10.40;92.78;100867.34;5093234;28;20040;-50
2020/12/15 10:55:37;;;;;;;14.75;8.25;;;;;;;10.36;92.85;100860.72;5092576;28;20079;-50
2020/12/15 10:58:05;;;;;;;14.43;7.90;;;;;;;10.29;92.84;100863.03;5092661;28;20123;-46
2020/12/15 11:00:32;;;;;;;19.02;8.45;;;;;;;10.28;92.94;100866.94;5092694;28;20052;-49
2020/12/15 11:02:59;;;;;;;15.13;7.15;;;;;;;10.24;92.88;100863.09;5092430;28;20052;-51
2020/12/15 11:05:26;;;;;;;15.38;7.68;;;;;;;10.21;92.92;100858.94;5092687;28;20044;-47
2020/12/15 11:07:53;;;;;;;15.60;6.60;;;;;;;10.17;92.95;100857.84;5092919;28;20052;-46
2020/12/15 11:10:20;;;;;;;18.33;7.38;;;;;;;10.19;93.17;100868.75;5091872;28;20087;-50
2020/12/15 11:12:46;;;;;;;15.23;7.72;;;;;;;10.18;93.11;100864.25;5092418;28;20075;-51
2020/12/15 11:15:13;;;;;;;18.30;8.02;;;;;;;10.16;93.00;100864.56;5100505;28;20054;-47
2020/12/15 11:17:41;;;;;;;17.05;8.02;;;;;;;10.16;92.86;100863.72;5112619;28;20088;-52
2020/12/15 11:20:08;;;;;;;16.42;7.70;;;;;;;10.14;92.92;100871.56;5112561;28;20387;-48
2020/12/15 11:22:34;;;;;;;20.17;9.00;;;;;;;10.12;92.86;100874.63;5112873;28;20486;-48
2020/12/15 11:25:01;;;;;;;19.90;8.65;;;;;;;10.11;92.99;100878.53;5111721;28;20122;-52
2020/12/15 11:27:28;;;;;;;23.25;9.20;;;;;;;10.12;93.02;100882.16;5112716;28;20090;-46
2020/12/15 11:29:55;;;;;;;18.90;9.35;;;;;;;10.13;92.96;100886.63;5112346;28;20044;-47
2020/12/15 11:32:30;;;;;;;22.27;9.95;;;;;;;10.15;92.97;100890.78;5112004;28;20399;-48
2020/12/15 11:34:58;;;;;;;21.15;9.70;;;;;;;10.16;93.06;100892.44;5112284;28;20051;-46